createdAt,value
2022-07-28T00:00:08.572Z,100299.91
2022-07-28T00:02:36.368Z,100305.31
2022-07-28T00:05:04.332Z,100296.75
2022-07-28T00:07:31.273Z,100301.87
2022-07-28T00:10:00.512Z,100292.03
2022-07-28T00:12:28.024Z,100288.97
2022-07-28T00:14:55.067Z,100281.50
2022-07-28T00:17:25.715Z,100281.72
2022-07-28T00:19:52.694Z,100277.09
2022-07-28T00:22:19.905Z,100279.47
2022-07-28T00:24:46.898Z,100282.50
2022-07-28T00:27:19.259Z,100267.13
2022-07-28T00:29:50.186Z,100260.63
2022-07-28T00:32:19.128Z,100259.88
2022-07-28T00:34:47.053Z,100255.44
2022-07-28T00:37:14.821Z,100255.66
2022-07-28T00:39:42.885Z,100254.75
2022-07-28T00:42:10.398Z,100254.25
2022-07-28T00:44:39.196Z,100258.56
2022-07-28T00:47:06.300Z,100264.13
2022-07-28T00:49:33.485Z,100260.31
2022-07-28T00:52:01.032Z,100255.13
2022-07-28T00:54:28.002Z,100250.91
2022-07-28T00:56:54.864Z,100245.72
2022-07-28T00:59:21.780Z,100248.62
2022-07-28T01:01:49.303Z,100254.13
2022-07-28T01:04:17.062Z,100260.31
2022-07-28T01:07:21.927Z,100267.13
2022-07-28T01:09:58.753Z,100266.25
2022-07-28T01:13:05.812Z,100264.44
2022-07-28T01:15:44.554Z,100257.47
2022-07-28T01:18:24.737Z,100261.50
2022-07-28T01:20:55.105Z,100267.13
2022-07-28T01:23:51.107Z,100266.38
2022-07-28T01:26:58.848Z,100268.09
2022-07-28T01:29:40.680Z,100266.12
2022-07-28T01:32:20.944Z,100256.94
2022-07-28T01:35:32.801Z,100258.66
2022-07-28T01:38:05.431Z,100262.03
2022-07-28T01:40:35.727Z,100252.41
2022-07-28T01:43:08.409Z,100258.59
2022-07-28T01:45:38.436Z,100259.22
2022-07-28T01:48:06.832Z,100254.91
2022-07-28T01:50:36.262Z,100254.56
2022-07-28T01:53:03.884Z,100255.56
2022-07-28T01:55:32.874Z,100261.37
2022-07-28T01:58:02.201Z,100255.13
2022-07-28T02:00:30.024Z,100249.16
2022-07-28T02:02:58.115Z,100262.56
2022-07-28T02:05:26.626Z,100262.25
2022-07-28T02:07:55.405Z,100261.59
2022-07-28T02:10:23.915Z,100267.53
2022-07-28T02:12:53.056Z,100260.06
2022-07-28T02:15:21.732Z,100253.69
2022-07-28T02:17:51.885Z,100251.19
2022-07-28T02:20:19.866Z,100252.75
2022-07-28T02:22:51.150Z,100251.00
2022-07-28T02:25:20.546Z,100260.41
2022-07-28T02:27:57.082Z,100255.53
2022-07-28T02:30:34.456Z,100257.37
2022-07-28T02:33:11.506Z,100262.00
2022-07-28T02:36:00.669Z,100254.56
2022-07-28T02:38:30.459Z,100256.06
2022-07-28T02:41:03.765Z,100258.09
2022-07-28T02:43:50.472Z,100264.37
2022-07-28T02:46:22.204Z,100267.28
2022-07-28T02:48:52.690Z,100270.16
2022-07-28T02:51:23.519Z,100275.72
2022-07-28T02:53:51.896Z,100279.19
2022-07-28T02:56:19.535Z,100280.16
2022-07-28T02:58:47.089Z,100275.31
2022-07-28T03:01:20.873Z,100281.56
2022-07-28T03:03:49.348Z,100274.44
2022-07-28T03:06:18.088Z,100280.16
2022-07-28T03:08:45.238Z,100291.84
2022-07-28T03:11:14.171Z,100297.47
2022-07-28T03:13:41.213Z,100294.75
2022-07-28T03:16:08.991Z,100301.09
2022-07-28T03:18:35.994Z,100302.56
2022-07-28T03:21:02.942Z,100300.91
2022-07-28T03:23:37.045Z,100298.00
2022-07-28T03:26:15.444Z,100297.84
2022-07-28T03:28:43.909Z,100296.59
2022-07-28T03:31:13.917Z,100295.31
2022-07-28T03:33:41.738Z,100303.22
2022-07-28T03:36:13.729Z,100305.13
2022-07-28T03:38:57.747Z,100306.09
2022-07-28T03:41:26.906Z,100308.47
2022-07-28T03:43:55.071Z,100306.62
2022-07-28T03:46:23.408Z,100316.19
2022-07-28T03:48:50.457Z,100320.16
2022-07-28T03:51:17.354Z,100335.37
2022-07-28T03:53:44.757Z,100337.34
2022-07-28T03:56:11.708Z,100337.69
2022-07-28T03:58:38.861Z,100334.03
2022-07-28T04:01:05.736Z,100343.59
2022-07-28T04:03:42.999Z,100343.41
2022-07-28T04:06:15.450Z,100340.62
2022-07-28T04:08:43.544Z,100347.56
2022-07-28T04:11:10.595Z,100343.69
2022-07-28T04:13:37.606Z,100343.44
2022-07-28T04:16:05.644Z,100345.94
2022-07-28T04:18:33.033Z,100338.87
2022-07-28T04:20:59.906Z,100331.44
2022-07-28T04:23:26.882Z,100330.47
2022-07-28T04:25:53.836Z,100336.00
2022-07-28T04:28:20.936Z,100336.88
2022-07-28T04:30:47.997Z,100337.84
2022-07-28T04:33:14.914Z,100342.63
2022-07-28T04:35:41.827Z,100341.03
2022-07-28T04:38:08.679Z,100351.81
2022-07-28T04:40:35.666Z,100352.25
2022-07-28T04:43:04.050Z,100346.28
2022-07-28T04:45:31.119Z,100347.62
2022-07-28T04:47:58.079Z,100344.34
2022-07-28T04:50:25.116Z,100350.50
2022-07-28T04:52:51.978Z,100346.84
2022-07-28T04:55:18.986Z,100350.84
2022-07-28T04:57:46.229Z,100352.28
2022-07-28T05:00:14.463Z,100353.91
2022-07-28T05:02:42.770Z,100356.75
2022-07-28T05:05:10.276Z,100364.69
2022-07-28T05:07:38.694Z,100356.56
2022-07-28T05:10:07.529Z,100362.75
2022-07-28T05:12:38.692Z,100366.13
2022-07-28T05:15:06.385Z,100367.72
2022-07-28T05:17:33.756Z,100367.44
2022-07-28T05:20:00.743Z,100365.59
2022-07-28T05:22:44.723Z,100371.47
2022-07-28T05:25:15.960Z,100370.38
2022-07-28T05:27:43.202Z,100373.94
2022-07-28T05:30:11.426Z,100376.44
2022-07-28T05:32:38.628Z,100379.47
2022-07-28T05:35:06.300Z,100383.56
2022-07-28T05:37:37.306Z,100376.63
2022-07-28T05:40:09.842Z,100388.41
2022-07-28T05:42:37.077Z,100387.88
2022-07-28T05:45:16.659Z,100388.50
2022-07-28T05:47:49.043Z,100391.78
2022-07-28T05:50:20.303Z,100389.41
2022-07-28T05:52:48.267Z,100395.66
2022-07-28T05:55:16.014Z,100391.03
2022-07-28T05:57:43.070Z,100396.94
2022-07-28T06:00:16.139Z,100403.78
2022-07-28T06:02:49.266Z,100405.53
2022-07-28T06:05:21.547Z,100412.66
2022-07-28T06:07:50.533Z,100411.44
2022-07-28T06:10:20.932Z,100422.94
2022-07-28T06:12:54.351Z,100416.66
2022-07-28T06:15:23.988Z,100414.22
2022-07-28T06:17:52.758Z,100410.78
2022-07-28T06:20:21.575Z,100419.19
2022-07-28T06:22:54.099Z,100424.91
2022-07-28T06:25:24.175Z,100424.16
2022-07-28T06:27:53.612Z,100426.31
2022-07-28T06:30:21.595Z,100433.13
2022-07-28T06:32:49.029Z,100424.66
2022-07-28T06:35:16.872Z,100429.66
2022-07-28T06:37:48.323Z,100431.00
2022-07-28T06:40:17.054Z,100435.19
2022-07-28T06:42:45.085Z,100431.16
2022-07-28T06:45:20.710Z,100431.22
2022-07-28T06:47:50.083Z,100432.63
2022-07-28T06:50:25.730Z,100434.31
2022-07-28T06:52:55.950Z,100429.78
2022-07-28T06:55:23.071Z,100437.56
2022-07-28T06:57:50.177Z,100435.75
2022-07-28T07:00:17.403Z,100443.75
2022-07-28T07:02:44.319Z,100438.53
2022-07-28T07:05:12.726Z,100438.31
2022-07-28T07:07:43.398Z,100441.88
2022-07-28T07:10:11.853Z,100437.47
2022-07-28T07:12:38.825Z,100440.19
2022-07-28T07:15:06.792Z,100442.41
2022-07-28T07:17:33.844Z,100433.78
2022-07-28T07:20:00.759Z,100429.31
2022-07-28T07:22:27.709Z,100426.81
2022-07-28T07:24:57.060Z,100428.50
2022-07-28T07:27:25.133Z,100426.78
2022-07-28T07:29:52.003Z,100420.69
2022-07-28T07:32:18.978Z,100420.53
2022-07-28T07:34:45.985Z,100417.34
2022-07-28T07:37:14.688Z,100430.00
2022-07-28T07:39:42.250Z,100424.69
2022-07-28T07:42:09.373Z,100430.22
2022-07-28T07:44:36.277Z,100425.81
2022-07-28T07:47:03.891Z,100432.88
2022-07-28T07:49:42.331Z,100433.69
2022-07-28T07:52:12.770Z,100429.34
2022-07-28T07:54:39.707Z,100429.03
2022-07-28T07:57:06.682Z,100429.00
2022-07-28T07:59:33.753Z,100430.94
2022-07-28T08:02:01.432Z,100426.56
2022-07-28T08:04:28.809Z,100424.19
2022-07-28T08:06:56.212Z,100416.78
2022-07-28T08:09:23.580Z,100419.00
2022-07-28T08:11:50.517Z,100415.94
2022-07-28T08:14:18.130Z,100420.78
2022-07-28T08:16:45.334Z,100423.28
2022-07-28T08:19:12.551Z,100428.97
2022-07-28T08:21:39.631Z,100423.03
2022-07-28T08:24:07.117Z,100421.69
2022-07-28T08:26:34.025Z,100426.53
2022-07-28T08:29:01.034Z,100426.28
2022-07-28T08:31:28.054Z,100423.66
2022-07-28T08:33:55.648Z,100428.62
2022-07-28T08:36:22.840Z,100420.13
2022-07-28T08:38:50.181Z,100411.72
2022-07-28T08:41:22.827Z,100412.59
2022-07-28T08:43:52.418Z,100422.25
2022-07-28T08:46:21.832Z,100416.28
2022-07-28T08:48:51.093Z,100407.84
2022-07-28T08:51:19.038Z,100421.78
2022-07-28T08:53:46.799Z,100407.69
2022-07-28T08:56:17.445Z,100411.94
2022-07-28T08:58:44.448Z,100411.84
2022-07-28T09:01:12.175Z,100415.16
2022-07-28T09:03:39.755Z,100406.34
2022-07-28T09:06:07.814Z,100405.69
2022-07-28T09:08:34.913Z,100404.88
2022-07-28T09:11:02.544Z,100404.94
2022-07-28T09:13:29.633Z,100402.38
2022-07-28T09:15:56.661Z,100409.47
2022-07-28T09:18:23.624Z,100403.37
2022-07-28T09:20:50.665Z,100403.44
2022-07-28T09:23:43.375Z,100397.84
2022-07-28T09:26:11.244Z,100409.19
2022-07-28T09:29:00.650Z,100406.22
2022-07-28T09:31:29.201Z,100399.91
2022-07-28T09:34:01.686Z,100394.47
2022-07-28T09:36:30.999Z,100391.84
2022-07-28T09:38:59.271Z,100397.09
2022-07-28T09:41:26.208Z,100388.84
2022-07-28T09:43:55.312Z,100385.28
2022-07-28T09:46:26.382Z,100379.44
2022-07-28T09:48:59.561Z,100375.53
2022-07-28T09:51:31.455Z,100376.84
2022-07-28T09:54:18.964Z,100372.53
2022-07-28T09:56:46.544Z,100371.97
2022-07-28T09:59:15.024Z,100373.88
2022-07-28T10:01:58.337Z,100371.94
2022-07-28T10:04:38.622Z,100365.44
2022-07-28T10:07:17.106Z,100379.22
2022-07-28T10:09:57.564Z,100368.84
2022-07-28T10:12:30.646Z,100376.97
2022-07-28T10:14:59.720Z,100369.44
2022-07-28T10:17:32.419Z,100355.72
2022-07-28T10:20:01.854Z,100369.63
2022-07-28T10:22:33.802Z,100356.41
2022-07-28T10:25:12.741Z,100358.78
2022-07-28T10:27:42.221Z,100349.31
2022-07-28T10:30:10.031Z,100355.31
2022-07-28T10:32:46.381Z,100353.75
2022-07-28T10:35:15.461Z,100345.78
2022-07-28T10:38:00.896Z,100347.88
2022-07-28T10:40:30.290Z,100342.31
2022-07-28T10:42:58.778Z,100337.81
2022-07-28T10:45:47.875Z,100332.03
2022-07-28T10:48:15.483Z,100334.34
2022-07-28T10:50:44.580Z,100334.00
2022-07-28T10:53:19.450Z,100328.34
2022-07-28T10:55:50.776Z,100334.66
2022-07-28T10:58:29.789Z,100333.75
2022-07-28T11:01:02.205Z,100325.47
2022-07-28T11:03:47.702Z,100325.78
2022-07-28T11:06:30.970Z,100321.53
2022-07-28T11:09:00.943Z,100318.53
2022-07-28T11:11:55.674Z,100316.34
2022-07-28T11:14:29.786Z,100314.69
2022-07-28T11:17:10.644Z,100316.97
2022-07-28T11:19:55.709Z,100311.44
2022-07-28T11:22:34.031Z,100307.38
2022-07-28T11:25:19.044Z,100309.03
2022-07-28T11:27:50.601Z,100315.16
2022-07-28T11:30:33.715Z,100309.72
2022-07-28T11:33:01.948Z,100309.53
2022-07-28T11:35:31.234Z,100318.75
2022-07-28T11:38:01.548Z,100312.50
2022-07-28T11:40:32.531Z,100312.84
2022-07-28T11:43:28.620Z,100307.03
2022-07-28T11:46:07.822Z,100306.59
2022-07-28T11:48:39.548Z,100291.09
2022-07-28T11:51:06.456Z,100298.81
2022-07-28T11:53:48.163Z,100295.38
2022-07-28T11:56:25.632Z,100298.28
2022-07-28T11:59:05.039Z,100299.31
2022-07-28T12:01:36.867Z,100288.28
2022-07-28T12:04:14.879Z,100286.31
2022-07-28T12:06:43.087Z,100284.56
2022-07-28T12:09:11.426Z,100285.63
2022-07-28T12:11:44.097Z,100273.94
2022-07-28T12:14:16.781Z,100278.09
2022-07-28T12:16:49.862Z,100265.59
2022-07-28T12:19:18.881Z,100277.28
2022-07-28T12:21:51.364Z,100277.69
2022-07-28T12:24:29.874Z,100270.47
2022-07-28T12:26:58.004Z,100264.81
2022-07-28T12:29:32.281Z,100274.72
2022-07-28T12:32:05.375Z,100270.87
2022-07-28T12:34:35.363Z,100255.91
2022-07-28T12:37:05.109Z,100260.22
2022-07-28T12:39:39.687Z,100262.06
2022-07-28T12:42:08.986Z,100257.66
2022-07-28T12:44:51.413Z,100256.12
2022-07-28T12:47:28.170Z,100248.78
2022-07-28T12:50:16.163Z,100247.09
2022-07-28T12:52:45.872Z,100245.25
2022-07-28T12:55:30.838Z,100245.09
2022-07-28T12:57:58.370Z,100240.09
2022-07-28T13:00:28.307Z,100244.03
2022-07-28T13:02:57.334Z,100237.34
2022-07-28T13:05:58.245Z,100239.47
2022-07-28T13:08:27.501Z,100240.63
2022-07-28T13:10:58.621Z,100241.03
2022-07-28T13:13:26.953Z,100235.66
2022-07-28T13:16:15.195Z,100238.50
2022-07-28T13:18:44.764Z,100231.88
2022-07-28T13:21:12.066Z,100230.87
2022-07-28T13:23:39.272Z,100234.28
2022-07-28T13:26:07.094Z,100235.25
2022-07-28T13:28:34.774Z,100240.53
2022-07-28T13:31:01.929Z,100232.41
2022-07-28T13:33:28.942Z,100219.72
2022-07-28T13:35:56.160Z,100223.56
2022-07-28T13:38:23.482Z,100225.06
2022-07-28T13:40:50.384Z,100220.31
2022-07-28T13:43:17.308Z,100212.19
2022-07-28T13:45:44.255Z,100206.63
2022-07-28T13:48:11.543Z,100208.66
2022-07-28T13:50:38.794Z,100202.75
2022-07-28T13:53:06.499Z,100208.38
2022-07-28T13:55:33.380Z,100208.00
2022-07-28T13:58:00.626Z,100210.81
2022-07-28T14:00:28.806Z,100203.00
2022-07-28T14:02:56.534Z,100201.31
2022-07-28T14:05:24.772Z,100213.72
2022-07-28T14:08:00.077Z,100195.06
2022-07-28T14:10:27.740Z,100200.88
2022-07-28T14:12:54.887Z,100205.00
2022-07-28T14:15:21.967Z,100203.63
2022-07-28T14:17:49.668Z,100205.75
2022-07-28T14:20:16.787Z,100197.88
2022-07-28T14:22:46.518Z,100195.69
2022-07-28T14:25:20.918Z,100195.69
2022-07-28T14:27:49.611Z,100190.59
2022-07-28T14:30:17.303Z,100197.41
2022-07-28T14:32:44.143Z,100195.12
2022-07-28T14:35:11.158Z,100197.34
2022-07-28T14:38:23.180Z,100191.84
2022-07-28T14:40:25.437Z,100193.25
2022-07-28T14:42:52.389Z,100188.06
2022-07-28T14:45:19.479Z,100189.84
2022-07-28T14:47:46.371Z,100180.09
2022-07-28T14:50:13.668Z,100186.16
2022-07-28T14:52:40.642Z,100179.19
2022-07-28T14:55:12.348Z,100176.50
2022-07-28T14:57:48.427Z,100178.41
2022-07-28T15:00:20.203Z,100176.81
2022-07-28T15:02:47.935Z,100173.34
2022-07-28T15:05:15.189Z,100176.31
2022-07-28T15:07:42.532Z,100174.09
2022-07-28T15:10:10.648Z,100173.88
2022-07-28T15:12:37.897Z,100173.72
2022-07-28T15:15:05.501Z,100174.56
2022-07-28T15:17:32.762Z,100174.44
2022-07-28T15:19:59.770Z,100177.09
2022-07-28T15:22:26.775Z,100178.53
2022-07-28T15:24:53.788Z,100171.31
2022-07-28T15:27:20.855Z,100175.13
2022-07-28T15:29:52.190Z,100173.72
2022-07-28T15:32:24.378Z,100169.37
2022-07-28T15:34:55.742Z,100163.91
2022-07-28T15:37:23.225Z,100167.41
2022-07-28T15:39:50.574Z,100166.47
2022-07-28T15:42:17.833Z,100167.50
2022-07-28T15:44:44.738Z,100176.25
2022-07-28T15:47:11.664Z,100171.06
2022-07-28T15:49:39.988Z,100167.56
2022-07-28T15:52:06.916Z,100168.81
2022-07-28T15:54:33.795Z,100160.19
2022-07-28T15:57:00.781Z,100162.09
2022-07-28T15:59:49.495Z,100160.91
2022-07-28T16:02:17.463Z,100161.53
2022-07-28T16:04:52.146Z,100163.16
2022-07-28T16:07:28.456Z,100155.56
2022-07-28T16:09:56.173Z,100160.50
2022-07-28T16:12:27.443Z,100158.59
2022-07-28T16:14:54.307Z,100144.72
2022-07-28T16:17:24.645Z,100155.91
2022-07-28T16:19:52.182Z,100155.37
2022-07-28T16:22:20.280Z,100155.97
2022-07-28T16:24:48.083Z,100149.28
2022-07-28T16:27:15.252Z,100159.37
2022-07-28T16:29:42.893Z,100157.84
2022-07-28T16:32:10.485Z,100154.50
2022-07-28T16:34:37.454Z,100159.16
2022-07-28T16:37:05.788Z,100161.19
2022-07-28T16:39:34.532Z,100160.91
2022-07-28T16:42:01.774Z,100158.38
2022-07-28T16:44:28.781Z,100159.81
2022-07-28T16:46:56.029Z,100158.03
2022-07-28T16:49:24.071Z,100168.81
2022-07-28T16:51:51.173Z,100167.88
2022-07-28T16:54:18.527Z,100163.38
2022-07-28T16:56:45.964Z,100163.78
2022-07-28T16:59:13.234Z,100166.44
2022-07-28T17:01:45.628Z,100172.25
2022-07-28T17:04:14.343Z,100164.94
2022-07-28T17:06:41.807Z,100159.47
2022-07-28T17:09:08.768Z,100166.06
2022-07-28T17:11:35.861Z,100174.50
2022-07-28T17:14:03.446Z,100171.28
2022-07-28T17:16:30.926Z,100170.91
2022-07-28T17:18:58.056Z,100178.16
2022-07-28T17:21:25.801Z,100172.50
2022-07-28T17:23:53.434Z,100172.63
2022-07-28T17:29:08.931Z,100169.53
2022-07-28T17:31:36.540Z,100165.06
2022-07-28T17:34:03.512Z,100168.34
2022-07-28T17:36:34.070Z,100167.28
2022-07-28T17:39:01.498Z,100165.41
2022-07-28T17:41:29.084Z,100172.78
2022-07-28T17:43:56.080Z,100173.09
2022-07-28T17:46:23.060Z,100186.63
2022-07-28T17:48:53.965Z,100169.94
2022-07-28T17:51:21.113Z,100173.00
2022-07-28T17:53:48.952Z,100174.72
2022-07-28T17:56:17.182Z,100177.78
2022-07-28T17:58:45.403Z,100180.72
2022-07-28T18:01:15.262Z,100184.62
2022-07-28T18:03:56.547Z,100184.50
2022-07-28T18:06:34.671Z,100177.16
2022-07-28T18:09:08.721Z,100184.28
2022-07-28T18:11:43.385Z,100184.47
2022-07-28T18:14:24.303Z,100179.00
2022-07-28T18:16:51.161Z,100182.87
2022-07-28T18:19:18.137Z,100180.28
2022-07-28T18:21:45.015Z,100190.03
2022-07-28T18:24:12.067Z,100193.16
2022-07-28T18:26:39.054Z,100197.34
2022-07-28T18:29:06.073Z,100195.06
2022-07-28T18:31:33.091Z,100204.47
2022-07-28T18:34:00.144Z,100202.91
2022-07-28T18:36:27.000Z,100208.72
2022-07-28T18:38:53.882Z,100212.78
2022-07-28T18:41:20.825Z,100215.38
2022-07-28T18:43:47.733Z,100211.91
2022-07-28T18:46:14.710Z,100221.97
2022-07-28T18:48:41.659Z,100222.09
2022-07-28T18:51:08.908Z,100226.41
2022-07-28T18:53:36.468Z,100223.56
2022-07-28T18:56:03.644Z,100227.91
2022-07-28T18:58:30.495Z,100235.19
2022-07-28T19:00:57.352Z,100235.06
2022-07-28T19:03:24.689Z,100244.56
2022-07-28T19:05:53.764Z,100243.13
2022-07-28T19:08:21.421Z,100240.84
2022-07-28T19:10:48.435Z,100236.09
2022-07-28T19:13:15.463Z,100243.13
2022-07-28T19:15:42.467Z,100242.41
2022-07-28T19:18:11.133Z,100240.19
2022-07-28T19:20:41.180Z,100244.31
2022-07-28T19:23:08.036Z,100246.28
2022-07-28T19:25:36.435Z,100254.03
2022-07-28T19:28:04.593Z,100252.06
2022-07-28T19:30:32.387Z,100266.91
2022-07-28T19:32:59.688Z,100260.94
2022-07-28T19:35:26.651Z,100267.66
2022-07-28T19:37:55.451Z,100258.75
2022-07-28T19:40:25.325Z,100257.72
2022-07-28T19:42:53.565Z,100252.53
2022-07-28T19:45:20.692Z,100260.84
2022-07-28T19:47:49.835Z,100264.94
2022-07-28T19:50:17.383Z,100254.28
2022-07-28T19:52:44.307Z,100260.84
2022-07-28T19:55:11.565Z,100268.34
2022-07-28T19:57:42.300Z,100271.25
2022-07-28T20:00:10.359Z,100274.37
2022-07-28T20:02:37.949Z,100269.69
2022-07-28T20:05:06.121Z,100279.78
2022-07-28T20:07:33.122Z,100279.62
2022-07-28T20:10:01.012Z,100275.34
2022-07-28T20:12:32.822Z,100284.84
2022-07-28T20:15:04.094Z,100287.13
2022-07-28T20:17:38.563Z,100292.06
2022-07-28T20:20:11.982Z,100291.44
2022-07-28T20:22:41.181Z,100293.09
2022-07-28T20:25:09.918Z,100295.56
2022-07-28T20:27:40.181Z,100299.78
2022-07-28T20:30:09.862Z,100304.97
2022-07-28T20:32:38.004Z,100303.84
2022-07-28T20:35:06.110Z,100311.53
2022-07-28T20:37:37.178Z,100323.88
2022-07-28T20:40:08.175Z,100328.44
2022-07-28T20:42:35.771Z,100318.69
2022-07-28T20:45:03.564Z,100321.41
2022-07-28T20:47:33.872Z,100323.25
2022-07-28T20:50:01.259Z,100328.59
2022-07-28T20:52:28.212Z,100321.25
2022-07-28T20:54:55.510Z,100330.50
2022-07-28T20:57:23.052Z,100330.75
2022-07-28T20:59:53.637Z,100330.22
2022-07-28T21:02:21.345Z,100330.19
2022-07-28T21:04:50.199Z,100326.06
2022-07-28T21:08:00.391Z,100324.09
2022-07-28T21:10:06.905Z,100324.13
2022-07-28T21:12:35.063Z,100328.16
2022-07-28T21:15:02.201Z,100327.94
2022-07-28T21:17:29.715Z,100335.44
2022-07-28T21:19:56.568Z,100329.56
2022-07-28T21:22:23.753Z,100335.69
2022-07-28T21:24:55.418Z,100334.63
2022-07-28T21:27:23.485Z,100337.78
2022-07-28T21:32:18.259Z,100353.25
2022-07-28T21:34:45.328Z,100370.69
2022-07-28T21:37:13.119Z,100373.44
2022-07-28T21:39:40.590Z,100370.50
2022-07-28T21:42:08.713Z,100372.37
2022-07-28T21:44:36.777Z,100374.38
2022-07-28T21:47:04.004Z,100376.19
2022-07-28T21:49:31.452Z,100379.78
2022-07-28T21:51:58.542Z,100373.16
2022-07-28T21:54:25.501Z,100376.78
2022-07-28T21:56:52.408Z,100384.59
2022-07-28T21:59:19.368Z,100385.56
2022-07-28T22:01:46.334Z,100379.84
2022-07-28T22:04:13.686Z,100393.59
2022-07-28T22:06:41.013Z,100391.97
2022-07-28T22:09:14.622Z,100389.59
2022-07-28T22:11:41.945Z,100390.03
2022-07-28T22:14:08.981Z,100396.16
2022-07-28T22:16:36.000Z,100394.78
2022-07-28T22:19:03.861Z,100391.84
2022-07-28T22:21:30.770Z,100397.19
2022-07-28T22:23:57.664Z,100391.12
2022-07-28T22:26:24.655Z,100395.69
2022-07-28T22:28:51.486Z,100402.19
2022-07-28T22:31:18.509Z,100400.91
2022-07-28T22:33:45.414Z,100400.63
2022-07-28T22:36:12.284Z,100407.06
2022-07-28T22:38:39.228Z,100396.87
2022-07-28T22:41:06.159Z,100402.59
2022-07-28T22:43:34.270Z,100403.03
2022-07-28T22:46:01.254Z,100404.09
2022-07-28T22:48:28.621Z,100412.44
2022-07-28T22:50:55.608Z,100415.50
2022-07-28T22:53:22.584Z,100413.13
2022-07-28T22:55:49.480Z,100408.00
2022-07-28T22:58:16.732Z,100418.66
2022-07-28T23:00:43.772Z,100410.41
2022-07-28T23:03:13.446Z,100412.81
2022-07-28T23:05:44.946Z,100414.75
2022-07-28T23:08:11.874Z,100414.00
2022-07-28T23:10:42.170Z,100411.06
2022-07-28T23:13:09.122Z,100408.34
2022-07-28T23:15:41.320Z,100414.97
2022-07-28T23:18:11.394Z,100415.16
2022-07-28T23:20:39.489Z,100409.44
2022-07-28T23:23:07.252Z,100419.94
2022-07-28T23:25:37.540Z,100410.09
2022-07-28T23:28:04.613Z,100413.66
2022-07-28T23:30:31.632Z,100414.44
2022-07-28T23:32:58.493Z,100409.22
2022-07-28T23:35:25.733Z,100413.87
2022-07-28T23:37:52.656Z,100412.25
2022-07-28T23:40:19.545Z,100419.28
2022-07-28T23:42:46.414Z,100421.34
2022-07-28T23:45:13.378Z,100416.69
2022-07-28T23:47:40.668Z,100412.69
2022-07-28T23:50:07.842Z,100412.84
2022-07-28T23:52:34.777Z,100413.50
2022-07-28T23:55:01.741Z,100413.03
2022-07-28T23:57:31.404Z,100420.41
2022-07-28T23:59:59.571Z,100414.75
